createdAt,value
2018-09-15T00:00:55.492Z,15.52
2018-09-15T00:03:24.306Z,15.50
2018-09-15T00:05:52.461Z,15.48
2018-09-15T00:08:20.504Z,15.48
2018-09-15T00:10:49.036Z,15.46
2018-09-15T00:13:17.598Z,15.46
2018-09-15T00:15:45.927Z,15.44
2018-09-15T00:18:15.579Z,15.41
2018-09-15T00:20:43.720Z,15.39
2018-09-15T00:23:12.301Z,15.35
2018-09-15T00:25:41.235Z,15.28
2018-09-15T00:28:10.142Z,15.31
2018-09-15T00:30:38.344Z,15.34
2018-09-15T00:33:06.549Z,15.34
2018-09-15T00:35:35.612Z,15.33
2018-09-15T00:38:04.730Z,15.33
2018-09-15T00:40:32.755Z,15.27
2018-09-15T00:43:00.819Z,15.24
2018-09-15T00:45:29.064Z,15.17
2018-09-15T00:47:57.349Z,15.16
2018-09-15T00:50:25.405Z,15.16
2018-09-15T00:52:53.465Z,15.14
2018-09-15T00:55:21.518Z,15.13
2018-09-15T00:57:49.568Z,15.14
2018-09-15T01:00:18.751Z,15.14
2018-09-15T01:02:46.929Z,15.18
2018-09-15T01:05:15.284Z,15.19
2018-09-15T01:07:43.336Z,15.17
2018-09-15T01:10:11.438Z,15.20
2018-09-15T01:12:39.480Z,15.22
2018-09-15T01:15:07.532Z,15.25
2018-09-15T01:17:35.590Z,15.25
2018-09-15T01:20:04.686Z,15.27
2018-09-15T01:22:32.692Z,15.30
2018-09-15T01:25:00.789Z,15.34
2018-09-15T01:27:28.835Z,15.38
2018-09-15T01:29:56.894Z,15.39
2018-09-15T01:32:26.489Z,15.41
2018-09-15T01:34:54.566Z,15.44
2018-09-15T01:37:22.617Z,15.42
2018-09-15T01:39:50.665Z,15.44
2018-09-15T01:42:18.721Z,15.46
2018-09-15T01:44:46.884Z,15.47
2018-09-15T01:47:14.956Z,15.48
2018-09-15T01:49:43.013Z,15.48
2018-09-15T01:52:11.060Z,15.48
2018-09-15T01:54:39.200Z,15.48
2018-09-15T01:57:07.579Z,15.49
2018-09-15T01:59:35.648Z,15.46
2018-09-15T02:02:03.740Z,15.46
2018-09-15T02:04:31.770Z,15.47
2018-09-15T02:06:59.859Z,15.46
2018-09-15T02:09:27.949Z,15.46
2018-09-15T02:11:56.007Z,15.42
2018-09-15T02:14:24.059Z,15.41
2018-09-15T02:16:52.148Z,15.37
2018-09-15T02:19:20.795Z,15.34
2018-09-15T02:21:48.836Z,15.32
2018-09-15T02:24:16.905Z,15.31
2018-09-15T02:26:45.031Z,15.29
2018-09-15T02:29:13.092Z,15.28
2018-09-15T02:31:41.228Z,15.22
2018-09-15T02:34:09.302Z,15.19
2018-09-15T02:36:37.377Z,15.19
2018-09-15T02:39:07.330Z,15.17
2018-09-15T02:41:35.391Z,15.15
2018-09-15T02:44:03.556Z,15.10
2018-09-15T02:46:31.632Z,15.07
2018-09-15T02:48:59.779Z,15.06
2018-09-15T02:51:27.863Z,15.01
2018-09-15T02:53:55.900Z,15.01
2018-09-15T02:56:23.956Z,14.96
2018-09-15T02:58:52.060Z,14.96
2018-09-15T03:01:20.168Z,14.94
2018-09-15T03:03:48.425Z,14.89
2018-09-15T03:06:16.488Z,14.88
2018-09-15T03:08:44.541Z,14.87
2018-09-15T03:11:13.059Z,14.87
2018-09-15T03:13:41.148Z,14.88
2018-09-15T03:16:09.208Z,14.90
2018-09-15T03:18:37.574Z,14.89
2018-09-15T03:21:05.875Z,14.87
2018-09-15T03:23:33.925Z,14.86
2018-09-15T03:26:02.390Z,14.85
2018-09-15T03:28:30.495Z,14.82
2018-09-15T03:30:58.543Z,14.79
2018-09-15T03:33:26.615Z,14.75
2018-09-15T03:35:54.670Z,14.74
2018-09-15T03:38:22.728Z,14.71
2018-09-15T03:40:50.792Z,14.68
2018-09-15T03:43:18.835Z,14.69
2018-09-15T03:45:46.893Z,14.69
2018-09-15T03:48:14.950Z,14.68
2018-09-15T03:50:43.410Z,14.67
2018-09-15T03:53:11.469Z,14.66
2018-09-15T03:55:39.518Z,14.62
2018-09-15T03:58:07.594Z,14.62
2018-09-15T04:00:35.664Z,14.58
2018-09-15T04:03:04.753Z,14.60
2018-09-15T04:05:32.811Z,14.61
2018-09-15T04:08:00.860Z,14.63
2018-09-15T04:10:28.902Z,14.63
2018-09-15T04:12:57.208Z,14.62
2018-09-15T04:15:25.279Z,14.63
2018-09-15T04:17:53.327Z,14.60
2018-09-15T04:20:21.717Z,14.63
2018-09-15T04:22:49.769Z,14.64
2018-09-15T04:25:17.823Z,14.67
2018-09-15T04:27:45.946Z,14.70
2018-09-15T04:30:14.013Z,14.69
2018-09-15T04:32:45.236Z,14.71
2018-09-15T04:35:13.297Z,14.73
2018-09-15T04:40:20.966Z,14.76
2018-09-15T04:42:49.760Z,14.76
2018-09-15T04:45:17.976Z,14.78
2018-09-15T04:47:46.040Z,14.80
2018-09-15T04:50:14.148Z,14.83
2018-09-15T04:52:42.324Z,14.83
2018-09-15T04:55:10.329Z,14.82
2018-09-15T04:57:38.545Z,14.83
2018-09-15T05:00:06.679Z,14.82
2018-09-15T05:02:34.728Z,14.84
2018-09-15T05:05:02.764Z,14.82
2018-09-15T05:07:30.796Z,14.81
2018-09-15T05:09:58.888Z,14.81
2018-09-15T05:12:27.004Z,14.80
2018-09-15T05:14:55.037Z,14.80
2018-09-15T05:17:23.428Z,14.80
2018-09-15T05:19:51.481Z,14.82
2018-09-15T05:22:19.590Z,14.80
2018-09-15T05:24:47.597Z,14.81
2018-09-15T05:27:15.651Z,14.81
2018-09-15T05:29:43.948Z,14.83
2018-09-15T05:32:12.238Z,14.80
2018-09-15T05:34:40.267Z,14.84
2018-09-15T05:37:15.145Z,14.86
2018-09-15T05:39:43.247Z,14.84
2018-09-15T05:42:11.237Z,14.87
2018-09-15T05:44:39.288Z,14.92
2018-09-15T05:47:07.341Z,14.93
2018-09-15T05:49:35.441Z,14.94
2018-09-15T05:52:03.469Z,14.93
2018-09-15T05:54:31.575Z,14.95
2018-09-15T05:56:59.642Z,15.00
2018-09-15T05:59:27.681Z,15.04
2018-09-15T06:01:55.763Z,15.06
2018-09-15T06:04:23.766Z,15.09
2018-09-15T06:06:51.957Z,15.13
2018-09-15T06:09:19.975Z,15.19
2018-09-15T06:11:48.037Z,15.18
2018-09-15T06:14:16.080Z,15.22
2018-09-15T06:16:44.226Z,15.31
2018-09-15T06:19:12.569Z,15.35
2018-09-15T06:21:40.659Z,15.39
2018-09-15T06:24:08.728Z,15.39
2018-09-15T06:26:37.373Z,15.40
2018-09-15T06:29:05.405Z,15.35
2018-09-15T06:31:33.450Z,15.33
2018-09-15T06:34:01.506Z,15.37
2018-09-15T06:36:29.639Z,15.41
2018-09-15T06:38:57.682Z,15.43
2018-09-15T06:41:25.819Z,15.43
2018-09-15T06:43:54.164Z,15.48
2018-09-15T06:46:22.213Z,15.52
2018-09-15T06:48:50.245Z,15.51
2018-09-15T06:51:18.464Z,15.56
2018-09-15T06:53:46.822Z,15.54
2018-09-15T06:56:14.947Z,15.52
2018-09-15T06:58:43.028Z,15.48
2018-09-15T07:01:11.074Z,15.53
2018-09-15T07:03:39.108Z,15.57
2018-09-15T07:06:07.157Z,15.58
2018-09-15T07:08:35.489Z,15.61
2018-09-15T07:11:03.511Z,15.66
2018-09-15T07:13:31.539Z,15.69
2018-09-15T07:15:59.576Z,15.76
2018-09-15T07:18:27.612Z,15.75
2018-09-15T07:20:55.650Z,15.81
2018-09-15T07:23:23.692Z,15.90
2018-09-15T07:25:51.779Z,15.96
2018-09-15T07:28:20.128Z,16.02
2018-09-15T07:30:48.168Z,16.06
2018-09-15T07:33:16.233Z,16.08
2018-09-15T07:35:44.272Z,16.14
2018-09-15T07:38:12.305Z,16.18
2018-09-15T07:40:40.344Z,16.17
2018-09-15T07:43:08.400Z,16.25
2018-09-15T07:45:36.436Z,16.34
2018-09-15T07:48:04.796Z,16.41
2018-09-15T07:50:43.852Z,16.53
2018-09-15T07:53:12.147Z,16.62
2018-09-15T07:55:40.195Z,16.76
2018-09-15T07:58:08.249Z,16.87
2018-09-15T08:00:36.284Z,16.97
2018-09-15T08:03:04.899Z,17.04
2018-09-15T08:05:32.944Z,17.18
2018-09-15T08:08:01.012Z,17.27
2018-09-15T08:10:29.060Z,17.37
2018-09-15T08:12:57.092Z,17.38
2018-09-15T08:15:31.845Z,17.41
2018-09-15T08:17:59.901Z,17.45
2018-09-15T08:20:27.959Z,17.46
2018-09-15T08:22:56.001Z,17.56
2018-09-15T08:25:24.035Z,17.54
2018-09-15T08:27:52.103Z,17.51
2018-09-15T08:30:20.116Z,17.53
2018-09-15T08:32:48.415Z,17.59
2018-09-15T08:35:16.461Z,17.56
2018-09-15T08:37:46.210Z,17.54
2018-09-15T08:40:14.697Z,17.54
2018-09-15T08:42:42.830Z,17.55
2018-09-15T08:45:10.856Z,17.62
2018-09-15T08:47:38.905Z,17.71
2018-09-15T08:50:07.034Z,17.75
2018-09-15T08:52:35.220Z,17.89
2018-09-15T08:55:03.450Z,18.04
2018-09-15T08:57:31.820Z,18.21
2018-09-15T08:59:59.951Z,18.39
2018-09-15T09:02:27.989Z,18.60
2018-09-15T09:04:56.235Z,18.68
2018-09-15T09:07:24.267Z,18.63
2018-09-15T09:09:52.331Z,18.71
2018-09-15T09:12:20.598Z,18.88
2018-09-15T09:14:48.665Z,19.05
2018-09-15T09:17:16.700Z,19.28
2018-09-15T09:19:44.832Z,19.45
2018-09-15T09:22:12.851Z,19.66
2018-09-15T09:24:41.282Z,19.71
2018-09-15T09:27:09.648Z,19.66
2018-09-15T09:29:37.684Z,19.77
2018-09-15T09:32:05.720Z,19.95
2018-09-15T09:34:33.932Z,20.08
2018-09-15T09:37:02.183Z,20.31
2018-09-15T09:39:30.256Z,20.38
2018-09-15T09:41:58.504Z,20.38
2018-09-15T09:44:26.553Z,20.52
2018-09-15T09:46:54.652Z,20.58
2018-09-15T09:49:22.729Z,20.77
2018-09-15T09:51:50.760Z,20.90
2018-09-15T09:54:18.816Z,21.04
2018-09-15T09:56:46.880Z,20.96
2018-09-15T09:59:15.228Z,20.85
2018-09-15T10:01:48.699Z,20.79
2018-09-15T10:04:16.758Z,20.67
2018-09-15T10:06:44.808Z,20.73
2018-09-15T10:09:12.861Z,20.81
2018-09-15T10:11:41.896Z,20.83
2018-09-15T10:14:10.271Z,20.93
2018-09-15T10:16:38.582Z,20.93
2018-09-15T10:19:07.495Z,21.08
2018-09-15T10:21:35.604Z,21.26
2018-09-15T10:24:03.589Z,21.18
2018-09-15T10:26:31.645Z,21.04
2018-09-15T10:28:59.720Z,20.93
2018-09-15T10:31:27.802Z,20.82
2018-09-15T10:33:55.858Z,20.65
2018-09-15T10:36:23.944Z,20.62
2018-09-15T10:38:52.000Z,20.51
2018-09-15T10:41:20.048Z,20.35
2018-09-15T10:43:48.359Z,20.37
2018-09-15T10:46:16.423Z,20.30
2018-09-15T10:48:44.457Z,20.23
2018-09-15T10:51:12.533Z,20.16
2018-09-15T10:53:40.603Z,20.16
2018-09-15T10:56:08.665Z,20.20
2018-09-15T10:58:36.856Z,20.28
2018-09-15T11:01:04.921Z,20.26
2018-09-15T11:03:32.952Z,20.29
2018-09-15T11:06:01.896Z,20.24
2018-09-15T11:08:29.907Z,20.20
2018-09-15T11:10:57.968Z,20.20
2018-09-15T11:13:26.135Z,20.17
2018-09-15T11:15:54.673Z,20.10
2018-09-15T11:18:22.736Z,19.88
2018-09-15T11:20:50.801Z,19.75
2018-09-15T11:23:18.894Z,19.59
2018-09-15T11:25:47.016Z,19.44
2018-09-15T11:28:15.085Z,19.34
2018-09-15T11:30:43.154Z,19.30
2018-09-15T11:33:11.266Z,19.30
2018-09-15T11:35:39.297Z,19.29
2018-09-15T11:38:07.339Z,19.31
2018-09-15T11:40:35.391Z,19.34
2018-09-15T11:43:03.566Z,19.36
2018-09-15T11:45:31.604Z,19.39
2018-09-15T11:48:00.573Z,19.44
2018-09-15T11:50:28.741Z,19.49
2018-09-15T11:52:56.795Z,19.59
2018-09-15T11:55:24.840Z,19.66
2018-09-15T11:57:53.152Z,19.70
2018-09-15T12:00:24.322Z,19.87
2018-09-15T12:02:52.365Z,20.12
2018-09-15T12:05:20.400Z,20.38
2018-09-15T12:07:48.497Z,20.62
2018-09-15T12:10:16.539Z,20.87
2018-09-15T12:12:44.604Z,21.19
2018-09-15T12:15:12.648Z,21.53
2018-09-15T12:17:40.930Z,21.74
2018-09-15T12:20:09.069Z,21.78
2018-09-15T12:22:37.125Z,21.74
2018-09-15T12:25:05.169Z,21.73
2018-09-15T12:27:33.385Z,21.69
2018-09-15T12:30:01.415Z,21.65
2018-09-15T12:32:29.450Z,21.59
2018-09-15T12:34:57.501Z,21.51
2018-09-15T12:37:25.584Z,21.47
2018-09-15T12:39:53.724Z,21.40
2018-09-15T12:42:21.789Z,21.27
2018-09-15T12:44:50.029Z,21.34
2018-09-15T12:47:18.117Z,21.48
2018-09-15T12:49:46.160Z,21.62
2018-09-15T12:52:14.299Z,21.79
2018-09-15T12:54:42.502Z,21.96
2018-09-15T12:57:10.621Z,22.03
2018-09-15T12:59:38.709Z,22.33
2018-09-15T13:02:06.819Z,22.70
2018-09-15T13:04:35.194Z,22.83
2018-09-15T13:07:03.269Z,22.80
2018-09-15T13:09:31.299Z,22.64
2018-09-15T13:11:59.392Z,22.54
2018-09-15T13:14:27.448Z,22.35
2018-09-15T13:16:55.513Z,22.29
2018-09-15T13:19:23.602Z,22.25
2018-09-15T13:21:51.648Z,22.23
2018-09-15T13:24:19.698Z,22.36
2018-09-15T13:26:47.776Z,22.50
2018-09-15T13:29:15.815Z,22.32
2018-09-15T13:31:43.880Z,22.27
2018-09-15T13:34:11.914Z,22.28
2018-09-15T13:36:40.034Z,22.36
2018-09-15T13:39:09.380Z,22.42
2018-09-15T13:41:43.980Z,22.43
2018-09-15T13:44:12.012Z,22.24
2018-09-15T13:46:40.143Z,22.12
2018-09-15T13:49:08.255Z,22.00
2018-09-15T13:51:36.965Z,21.92
2018-09-15T13:54:05.073Z,21.86
2018-09-15T13:56:33.136Z,21.71
2018-09-15T13:59:01.573Z,21.67
2018-09-15T14:01:29.674Z,21.60
2018-09-15T14:03:57.710Z,21.57
2018-09-15T14:06:25.774Z,21.46
2018-09-15T14:08:53.808Z,21.42
2018-09-15T14:11:21.853Z,21.45
2018-09-15T14:13:49.892Z,21.41
2018-09-15T14:16:17.959Z,21.33
2018-09-15T14:18:46.005Z,21.25
2018-09-15T14:21:14.064Z,21.24
2018-09-15T14:23:42.124Z,21.26
2018-09-15T14:26:10.427Z,21.22
2018-09-15T14:28:38.466Z,21.15
2018-09-15T14:31:06.569Z,21.09
2018-09-15T14:33:34.637Z,21.03
2018-09-15T14:36:02.673Z,20.94
2018-09-15T14:38:30.733Z,20.88
2018-09-15T14:40:58.784Z,20.75
2018-09-15T14:43:26.833Z,20.66
2018-09-15T14:45:54.885Z,20.65
2018-09-15T14:48:22.946Z,20.71
2018-09-15T14:50:50.973Z,20.71
2018-09-15T14:55:53.339Z,20.55
2018-09-15T14:58:21.367Z,20.59
2018-09-15T15:00:49.425Z,20.55
2018-09-15T15:03:17.513Z,20.49
2018-09-15T15:05:45.685Z,20.46
2018-09-15T15:08:13.777Z,20.47
2018-09-15T15:10:41.843Z,20.46
2018-09-15T15:13:09.889Z,20.44
2018-09-15T15:15:37.965Z,20.50
2018-09-15T15:18:06.036Z,20.56
2018-09-15T15:20:34.445Z,20.63
2018-09-15T15:23:02.504Z,20.63
2018-09-15T15:25:30.662Z,20.65
2018-09-15T15:27:58.657Z,20.71
2018-09-15T15:30:26.932Z,20.78
2018-09-15T15:32:55.025Z,20.90
2018-09-15T15:35:23.088Z,20.92
2018-09-15T15:37:51.456Z,20.90
2018-09-15T15:40:19.510Z,20.87
2018-09-15T15:42:48.561Z,20.85
2018-09-15T15:45:16.662Z,20.77
2018-09-15T15:47:44.694Z,20.79
2018-09-15T15:50:12.736Z,20.81
2018-09-15T15:52:40.772Z,20.80
2018-09-15T15:55:08.828Z,20.72
2018-09-15T15:57:43.693Z,20.69
2018-09-15T16:00:11.753Z,20.69
2018-09-15T16:02:39.851Z,20.67
2018-09-15T16:05:25.504Z,20.66
2018-09-15T16:07:53.545Z,20.57
2018-09-15T16:10:21.614Z,20.57
2018-09-15T16:12:49.650Z,20.52
2018-09-15T16:15:17.714Z,20.50
2018-09-15T16:17:45.749Z,20.51
2018-09-15T16:20:13.795Z,20.42
2018-09-15T16:22:41.833Z,20.37
2018-09-15T16:25:09.869Z,20.29
2018-09-15T16:27:37.909Z,20.31
2018-09-15T16:30:06.475Z,20.25
2018-09-15T16:32:34.502Z,20.20
2018-09-15T16:35:02.533Z,20.18
2018-09-15T16:37:30.558Z,20.20
2018-09-15T16:39:58.857Z,20.18
2018-09-15T16:42:26.900Z,20.20
2018-09-15T16:44:54.929Z,20.15
2018-09-15T16:47:22.975Z,20.14
2018-09-15T16:49:51.022Z,20.14
2018-09-15T16:52:19.090Z,20.10
2018-09-15T16:54:47.134Z,20.09
2018-09-15T16:57:15.172Z,20.06
2018-09-15T16:59:43.318Z,20.02
2018-09-15T17:02:11.344Z,19.97
2018-09-15T17:04:39.396Z,19.92
2018-09-15T17:07:07.565Z,19.86
2018-09-15T17:09:35.641Z,19.81
2018-09-15T17:12:03.685Z,19.76
2018-09-15T17:14:31.738Z,19.69
2018-09-15T17:16:59.825Z,19.64
2018-09-15T17:19:27.884Z,19.63
2018-09-15T17:21:55.929Z,19.58
2018-09-15T17:24:23.967Z,19.55
2018-09-15T17:26:52.016Z,19.53
2018-09-15T17:29:20.089Z,19.50
2018-09-15T17:31:48.129Z,19.49
2018-09-15T17:34:16.176Z,19.45
2018-09-15T17:36:44.224Z,19.39
2018-09-15T17:39:13.824Z,19.33
2018-09-15T17:41:41.864Z,19.27
2018-09-15T17:44:09.944Z,19.21
2018-09-15T17:46:37.996Z,19.14
2018-09-15T17:49:06.063Z,19.06
2018-09-15T17:51:34.114Z,19.00
2018-09-15T17:54:02.164Z,18.94
2018-09-15T17:56:30.222Z,18.89
2018-09-15T17:58:58.261Z,18.84
2018-09-15T18:01:26.307Z,18.75
2018-09-15T18:03:54.340Z,18.68
2018-09-15T18:06:22.543Z,18.61
2018-09-15T18:08:50.836Z,18.54
2018-09-15T18:11:18.889Z,18.48
2018-09-15T18:13:46.928Z,18.41
2018-09-15T18:16:14.998Z,18.38
2018-09-15T18:18:43.085Z,18.32
2018-09-15T18:21:11.148Z,18.23
2018-09-15T18:23:39.190Z,18.18
2018-09-15T18:26:07.233Z,18.14
2018-09-15T18:28:35.283Z,18.09
2018-09-15T18:31:03.371Z,18.09
2018-09-15T18:33:31.365Z,18.06
2018-09-15T18:35:59.516Z,18.02
2018-09-15T18:38:27.500Z,17.97
2018-09-15T18:40:55.665Z,17.93
2018-09-15T18:43:23.738Z,17.90
2018-09-15T18:45:51.781Z,17.82
2018-09-15T18:48:19.821Z,17.78
2018-09-15T18:50:47.871Z,17.73
2018-09-15T18:53:15.913Z,17.66
2018-09-15T18:55:44.018Z,17.59
2018-09-15T18:58:12.077Z,17.51
2018-09-15T19:00:40.164Z,17.41
2018-09-15T19:03:12.424Z,17.33
2018-09-15T19:05:40.469Z,17.27
2018-09-15T19:08:08.543Z,17.18
2018-09-15T19:10:36.805Z,17.12
2018-09-15T19:13:04.848Z,17.07
2018-09-15T19:15:32.909Z,17.06
2018-09-15T19:18:00.948Z,17.03
2018-09-15T19:20:28.985Z,17.02
2018-09-15T19:22:57.021Z,16.98
2018-09-15T19:25:25.341Z,16.95
2018-09-15T19:27:53.432Z,16.91
2018-09-15T19:30:21.464Z,16.83
2018-09-15T19:32:49.565Z,16.75
2018-09-15T19:35:17.562Z,16.69
2018-09-15T19:37:45.579Z,16.64
2018-09-15T19:40:13.638Z,16.59
2018-09-15T19:42:41.733Z,16.53
2018-09-15T19:45:09.789Z,16.46
2018-09-15T19:47:37.833Z,16.40
2018-09-15T19:50:05.897Z,16.36
2018-09-15T19:52:34.007Z,16.32
2018-09-15T19:55:02.040Z,16.27
2018-09-15T19:57:30.082Z,16.21
2018-09-15T19:59:58.154Z,16.13
2018-09-15T20:02:26.241Z,16.06
2018-09-15T20:04:54.393Z,15.98
2018-09-15T20:07:22.411Z,15.93
2018-09-15T20:09:50.465Z,15.88
2018-09-15T20:12:18.517Z,15.81
2018-09-15T20:14:46.555Z,15.77
2018-09-15T20:17:13.619Z,15.71
2018-09-15T20:19:40.694Z,15.66
2018-09-15T20:22:08.740Z,15.57
2018-09-15T20:24:37.059Z,15.51
2018-09-15T20:27:05.061Z,15.47
2018-09-15T20:29:33.114Z,15.42
2018-09-15T20:32:01.489Z,15.38
2018-09-15T20:34:29.537Z,15.33
2018-09-15T20:36:57.576Z,15.27
2018-09-15T20:39:25.606Z,15.22
2018-09-15T20:41:53.652Z,15.19
2018-09-15T20:44:21.703Z,15.12
2018-09-15T20:46:49.744Z,15.09
2018-09-15T20:49:17.823Z,15.08
2018-09-15T20:51:45.879Z,15.06
2018-09-15T20:54:13.952Z,15.04
2018-09-15T20:56:42.079Z,15.01
2018-09-15T20:59:10.114Z,14.99
2018-09-15T21:01:38.326Z,14.92
2018-09-15T21:04:06.505Z,14.87
2018-09-15T21:06:34.586Z,14.83
2018-09-15T21:09:02.662Z,14.79
2018-09-15T21:11:30.705Z,14.76
2018-09-15T21:13:58.762Z,14.74
2018-09-15T21:16:26.797Z,14.71
2018-09-15T21:18:54.845Z,14.69
2018-09-15T21:21:22.883Z,14.64
2018-09-15T21:23:50.921Z,14.58
2018-09-15T21:26:18.988Z,14.51
2018-09-15T21:28:47.027Z,14.45
2018-09-15T21:31:15.066Z,14.43
2018-09-15T21:33:43.190Z,14.39
2018-09-15T21:36:11.248Z,14.34
2018-09-15T21:38:39.320Z,14.29
2018-09-15T21:41:07.401Z,14.27
2018-09-15T21:43:35.453Z,14.25
2018-09-15T21:46:03.586Z,14.23
2018-09-15T21:48:31.613Z,14.21
2018-09-15T21:50:59.672Z,14.18
2018-09-15T21:53:27.763Z,14.18
2018-09-15T21:55:55.746Z,14.15
2018-09-15T21:58:23.788Z,14.12
2018-09-15T22:00:56.011Z,14.09
2018-09-15T22:03:24.064Z,14.09
2018-09-15T22:05:52.233Z,14.08
2018-09-15T22:08:20.641Z,14.08
2018-09-15T22:10:48.984Z,14.09
2018-09-15T22:13:17.278Z,14.08
2018-09-15T22:15:45.319Z,14.08
2018-09-15T22:18:13.364Z,14.04
2018-09-15T22:20:41.464Z,13.99
2018-09-15T22:23:09.508Z,13.97
2018-09-15T22:25:37.549Z,13.97
2018-09-15T22:28:05.753Z,13.91
2018-09-15T22:30:33.816Z,13.86
2018-09-15T22:33:01.849Z,13.81
2018-09-15T22:35:29.890Z,13.77
2018-09-15T22:37:57.927Z,13.76
2018-09-15T22:40:25.973Z,13.74
2018-09-15T22:42:54.017Z,13.73
2018-09-15T22:45:22.048Z,13.73
2018-09-15T22:47:50.094Z,13.72
2018-09-15T22:50:18.149Z,13.72
2018-09-15T22:52:46.196Z,13.71
2018-09-15T22:55:14.243Z,13.70
2018-09-15T22:57:42.378Z,13.68
2018-09-15T23:00:10.417Z,13.68
2018-09-15T23:02:38.450Z,13.65
2018-09-15T23:05:06.575Z,13.59
2018-09-15T23:07:34.662Z,13.59
2018-09-15T23:10:02.734Z,13.57
2018-09-15T23:12:31.028Z,13.58
2018-09-15T23:14:59.086Z,13.58
2018-09-15T23:17:27.131Z,13.57
2018-09-15T23:19:55.172Z,13.55
2018-09-15T23:22:23.208Z,13.55
2018-09-15T23:24:51.296Z,13.53
2018-09-15T23:27:19.364Z,13.50
2018-09-15T23:29:47.681Z,13.49
2018-09-15T23:32:15.724Z,13.49
2018-09-15T23:34:43.820Z,13.50
2018-09-15T23:37:11.856Z,13.52
2018-09-15T23:39:41.944Z,13.52
2018-09-15T23:42:09.984Z,13.53
2018-09-15T23:44:38.049Z,13.51
2018-09-15T23:47:06.115Z,13.51
2018-09-15T23:49:34.192Z,13.50
2018-09-15T23:52:02.260Z,13.49
2018-09-15T23:54:30.301Z,13.45
2018-09-15T23:56:58.538Z,13.43
2018-09-15T23:59:26.557Z,13.38
